Time;durP1;ratioP1;P1;durP2;ratioP2;P2;SDS_P1;SDS_P2;PMS_P1;PMS_P2;Temp;Humidity;BMP_temperature;BMP_pressure;BME280_temperature;BME280_humidity;BME280_pressure;Samples;Min_cycle;Max_cycle;Signal;HPM_P1;HPM_P2
2023/12/17 00:01:28;;;;;;;13.60;11.73;;;;;;;;;;10279465;28;20072;-57
2023/12/17 00:06:26;;;;;;;17.70;13.73;;;;;;;;;;10288114;28;20561;-56
2023/12/17 00:11:25;;;;;;;16.83;13.05;;;;;;;;;;10287056;28;20044;-55
2023/12/17 00:16:23;;;;;;;16.40;12.80;;;;;;;;;;10284556;28;20069;-57
2023/12/17 00:21:22;;;;;;;19.35;13.35;;;;;;;;;;10282617;28;20072;-56
2023/12/17 00:26:21;;;;;;;17.20;13.50;;;;;;;;;;10279276;28;20144;-57
2023/12/17 00:31:19;;;;;;;16.50;14.32;;;;;;;;;;10282498;28;20087;-56
2023/12/17 00:36:17;;;;;;;16.98;13.38;;;;;;;;;;10275522;28;20068;-56
2023/12/17 00:41:17;;;;;;;17.02;14.05;;;;;;;;;;10280273;28;20501;-56
2023/12/17 00:46:15;;;;;;;18.45;14.02;;;;;;;;;;10287465;28;20072;-56
2023/12/17 00:51:13;;;;;;;17.23;13.73;;;;;;;;;;10285499;28;20069;-55
2023/12/17 00:56:12;;;;;;;17.52;13.77;;;;;;;;;;10284191;28;20072;-55
2023/12/17 01:01:11;;;;;;;16.80;13.85;;;;;;;;;;10288047;28;20072;-55
2023/12/17 01:06:10;;;;;;;17.25;12.52;;;;;;;;;;10287507;28;20128;-56
2023/12/17 01:11:08;;;;;;;16.13;12.63;;;;;;;;;;10279746;28;20406;-57
2023/12/17 01:16:07;;;;;;;17.10;13.50;;;;;;;;;;10277175;28;20542;-57
2023/12/17 01:21:06;;;;;;;16.13;13.77;;;;;;;;;;10281193;28;20071;-56
2023/12/17 01:26:05;;;;;;;17.17;13.50;;;;;;;;;;10281016;28;20072;-55
2023/12/17 01:31:03;;;;;;;15.15;12.20;;;;;;;;;;10283962;28;20450;-56
2023/12/17 01:36:02;;;;;;;41.55;23.27;;;;;;;;;;10284327;28;20068;-55
2023/12/17 01:41:01;;;;;;;18.50;14.82;;;;;;;;;;10288061;28;20065;-55
2023/12/17 01:46:00;;;;;;;22.33;18.55;;;;;;;;;;10278765;28;20081;-58
2023/12/17 01:50:58;;;;;;;18.83;16.02;;;;;;;;;;10284312;28;20494;-56
2023/12/17 01:55:57;;;;;;;29.00;25.17;;;;;;;;;;10278383;28;20083;-54
2023/12/17 02:00:56;;;;;;;21.40;19.13;;;;;;;;;;10286822;28;20060;-56
2023/12/17 02:05:55;;;;;;;26.08;21.52;;;;;;;;;;10289631;28;20079;-55
2023/12/17 02:10:53;;;;;;;26.73;20.55;;;;;;;;;;10293281;28;20068;-54
2023/12/17 02:15:51;;;;;;;23.00;17.25;;;;;;;;;;10289783;28;20080;-57
2023/12/17 02:20:51;;;;;;;22.67;18.85;;;;;;;;;;10287873;28;20065;-56
2023/12/17 02:25:51;;;;;;;23.52;17.80;;;;;;;;;;10292492;28;20091;-57
2023/12/17 02:30:49;;;;;;;19.00;15.82;;;;;;;;;;10289491;28;20084;-57
2023/12/17 02:35:47;;;;;;;19.23;15.73;;;;;;;;;;10286843;28;20068;-57
2023/12/17 02:40:46;;;;;;;21.33;14.60;;;;;;;;;;10289845;28;20072;-58
2023/12/17 02:45:45;;;;;;;18.13;15.63;;;;;;;;;;10284845;28;20069;-56
2023/12/17 02:50:44;;;;;;;19.20;16.20;;;;;;;;;;10286087;28;20061;-56
2023/12/17 02:55:45;;;;;;;22.10;16.40;;;;;;;;;;10287622;28;20072;-56
2023/12/17 03:00:47;;;;;;;20.38;16.88;;;;;;;;;;10283453;28;20069;-57
2023/12/17 03:05:46;;;;;;;22.80;16.90;;;;;;;;;;10285227;28;20624;-57
2023/12/17 03:10:44;;;;;;;19.65;15.30;;;;;;;;;;10287760;28;20079;-58
2023/12/17 03:15:42;;;;;;;21.42;17.08;;;;;;;;;;10289069;28;20106;-57
2023/12/17 03:20:42;;;;;;;23.42;17.98;;;;;;;;;;10289240;28;20084;-57
2023/12/17 03:25:40;;;;;;;21.73;17.13;;;;;;;;;;10283300;28;20067;-57
2023/12/17 03:30:38;;;;;;;19.95;16.13;;;;;;;;;;10284950;28;20080;-57
2023/12/17 03:35:36;;;;;;;22.67;17.35;;;;;;;;;;10287793;28;20103;-57
2023/12/17 03:40:36;;;;;;;20.75;17.77;;;;;;;;;;10283012;28;20068;-58
2023/12/17 03:45:35;;;;;;;23.60;18.13;;;;;;;;;;10287200;28;20072;-58
2023/12/17 03:50:33;;;;;;;23.13;16.55;;;;;;;;;;10287018;28;20075;-56
2023/12/17 03:55:32;;;;;;;31.83;25.23;;;;;;;;;;10281369;28;20064;-56
2023/12/17 04:00:31;;;;;;;24.42;18.95;;;;;;;;;;10286751;28;20076;-57
2023/12/17 04:05:29;;;;;;;20.50;17.65;;;;;;;;;;10286651;28;20069;-58
2023/12/17 04:10:28;;;;;;;19.15;14.90;;;;;;;;;;10287171;28;20083;-59
2023/12/17 04:15:26;;;;;;;19.40;15.40;;;;;;;;;;10285066;28;20131;-57
2023/12/17 04:20:26;;;;;;;21.98;15.80;;;;;;;;;;10282598;28;20060;-58
2023/12/17 04:25:25;;;;;;;20.23;16.08;;;;;;;;;;10283840;28;20506;-58
2023/12/17 04:30:23;;;;;;;20.60;16.52;;;;;;;;;;10287112;28;20502;-56
2023/12/17 04:35:21;;;;;;;25.65;18.67;;;;;;;;;;10281933;28;20087;-58
2023/12/17 04:40:21;;;;;;;22.00;17.40;;;;;;;;;;10287189;28;20080;-56
2023/12/17 04:45:19;;;;;;;19.08;15.52;;;;;;;;;;10285543;28;20546;-56
2023/12/17 04:50:18;;;;;;;20.38;14.10;;;;;;;;;;10285247;28;20048;-57
2023/12/17 04:55:16;;;;;;;17.48;14.40;;;;;;;;;;10282264;28;20081;-57
2023/12/17 05:00:16;;;;;;;21.13;14.95;;;;;;;;;;10284550;28;20079;-55
2023/12/17 05:05:15;;;;;;;33.25;25.40;;;;;;;;;;10283184;28;20080;-55
2023/12/17 05:10:13;;;;;;;20.80;18.58;;;;;;;;;;10282598;28;20068;-57
2023/12/17 05:15:11;;;;;;;17.02;13.88;;;;;;;;;;10286352;28;20072;-58
2023/12/17 05:20:11;;;;;;;16.88;14.50;;;;;;;;;;10284982;28;20073;-56
2023/12/17 05:25:09;;;;;;;16.83;14.45;;;;;;;;;;10288514;28;20073;-57
2023/12/17 05:30:11;;;;;;;18.38;15.10;;;;;;;;;;10280159;28;20147;-54
2023/12/17 05:35:11;;;;;;;18.48;15.10;;;;;;;;;;10288296;28;20082;-57
2023/12/17 05:40:10;;;;;;;31.80;26.52;;;;;;;;;;10287569;28;20099;-57
2023/12/17 05:45:09;;;;;;;26.98;22.42;;;;;;;;;;10286673;28;20502;-57
2023/12/17 05:50:08;;;;;;;22.70;19.55;;;;;;;;;;10289143;28;20056;-57
2023/12/17 05:55:08;;;;;;;23.35;18.50;;;;;;;;;;10291236;28;20482;-54
2023/12/17 06:00:08;;;;;;;25.83;17.90;;;;;;;;;;10288207;28;20080;-57
2023/12/17 06:05:07;;;;;;;21.95;18.55;;;;;;;;;;10289061;28;20463;-57
2023/12/17 06:10:06;;;;;;;22.90;19.70;;;;;;;;;;10291333;28;20068;-56
2023/12/17 06:15:07;;;;;;;20.58;17.00;;;;;;;;;;10286307;28;20072;-55
2023/12/17 06:20:09;;;;;;;62.22;48.03;;;;;;;;;;10287649;28;20091;-55
2023/12/17 06:25:07;;;;;;;40.28;27.27;;;;;;;;;;10287758;28;20160;-59
2023/12/17 06:30:08;;;;;;;53.33;31.63;;;;;;;;;;10290695;28;20068;-58
2023/12/17 06:35:07;;;;;;;50.95;34.92;;;;;;;;;;10286948;28;20479;-59
2023/12/17 06:40:05;;;;;;;28.27;21.83;;;;;;;;;;10289185;28;20077;-57
2023/12/17 06:45:09;;;;;;;41.33;26.83;;;;;;;;;;10288099;28;20131;-58
2023/12/17 06:50:08;;;;;;;34.05;22.58;;;;;;;;;;10283381;28;20462;-57
2023/12/17 06:55:07;;;;;;;56.95;28.23;;;;;;;;;;10290439;28;20382;-57
2023/12/17 07:00:06;;;;;;;68.72;27.88;;;;;;;;;;10288177;28;20080;-57
2023/12/17 07:05:09;;;;;;;87.93;29.92;;;;;;;;;;10285337;28;20080;-55
2023/12/17 07:10:08;;;;;;;50.60;23.52;;;;;;;;;;10287119;28;20548;-57
2023/12/17 07:15:07;;;;;;;37.78;23.63;;;;;;;;;;10271498;28;20431;-54
2023/12/17 07:20:06;;;;;;;33.22;23.58;;;;;;;;;;10267148;28;20058;-57
2023/12/17 07:25:06;;;;;;;32.25;23.15;;;;;;;;;;10279231;28;20042;-57
2023/12/17 07:30:04;;;;;;;39.15;22.23;;;;;;;;;;10300532;28;20147;-57
2023/12/17 07:35:06;;;;;;;33.40;26.65;;;;;;;;;;10297167;28;20143;-56
2023/12/17 07:40:06;;;;;;;42.95;31.42;;;;;;;;;;10286895;28;20095;-57
2023/12/17 07:45:05;;;;;;;39.95;29.90;;;;;;;;;;10280212;28;20064;-57
2023/12/17 07:50:04;;;;;;;32.22;25.73;;;;;;;;;;10282151;28;20075;-54
2023/12/17 07:55:02;;;;;;;38.78;29.27;;;;;;;;;;10283175;28;20554;-57
2023/12/17 08:00:02;;;;;;;27.52;20.40;;;;;;;;;;10281485;28;20198;-57
2023/12/17 08:05:08;;;;;;;25.75;19.13;;;;;;;;;;10283272;28;20064;-57
2023/12/17 08:10:08;;;;;;;22.45;18.38;;;;;;;;;;10287293;28;20068;-60
2023/12/17 08:15:08;;;;;;;27.60;20.58;;;;;;;;;;10283280;28;20556;-59
2023/12/17 08:20:07;;;;;;;32.30;23.77;;;;;;;;;;10287715;28;20080;-57
2023/12/17 08:25:05;;;;;;;44.45;33.28;;;;;;;;;;10285748;28;20068;-57
2023/12/17 08:30:04;;;;;;;31.50;24.45;;;;;;;;;;10286238;28;20083;-57
2023/12/17 08:35:06;;;;;;;30.98;23.30;;;;;;;;;;10282668;28;20079;-56
2023/12/17 08:40:06;;;;;;;39.83;28.48;;;;;;;;;;10282801;28;20137;-48
2023/12/17 08:45:05;;;;;;;36.33;23.98;;;;;;;;;;10285626;28;20106;-56
2023/12/17 08:50:05;;;;;;;33.90;23.83;;;;;;;;;;10284893;28;20092;-58
2023/12/17 08:55:03;;;;;;;33.72;22.98;;;;;;;;;;10286211;28;20079;-58
2023/12/17 09:00:03;;;;;;;33.95;23.45;;;;;;;;;;10284369;28;20493;-58
2023/12/17 09:05:01;;;;;;;41.42;29.35;;;;;;;;;;10288652;28;20107;-57
2023/12/17 09:10:01;;;;;;;33.58;25.45;;;;;;;;;;10285813;28;20083;-57
2023/12/17 09:15:00;;;;;;;34.83;26.65;;;;;;;;;;10296263;28;20115;-58
2023/12/17 09:19:58;;;;;;;32.92;24.92;;;;;;;;;;10294357;28;20073;-59
2023/12/17 09:24:56;;;;;;;28.75;21.67;;;;;;;;;;10292394;28;20064;-56
2023/12/17 09:29:57;;;;;;;35.88;25.90;;;;;;;;;;10294620;28;20072;-56
2023/12/17 09:34:55;;;;;;;28.33;21.67;;;;;;;;;;10292594;28;20517;-56
2023/12/17 09:39:54;;;;;;;40.95;32.42;;;;;;;;;;10294989;28;20076;-58
2023/12/17 09:44:52;;;;;;;42.90;31.95;;;;;;;;;;10293146;28;20075;-55
2023/12/17 09:49:52;;;;;;;31.10;24.92;;;;;;;;;;10291626;28;20079;-57
2023/12/17 09:54:51;;;;;;;32.75;24.17;;;;;;;;;;10293222;28;20064;-58
2023/12/17 09:59:49;;;;;;;30.88;23.70;;;;;;;;;;10293214;28;20087;-57
2023/12/17 10:04:48;;;;;;;26.50;20.55;;;;;;;;;;10297433;28;20072;-58
2023/12/17 10:09:47;;;;;;;25.85;19.95;;;;;;;;;;10292874;28;20069;-58
2023/12/17 10:14:46;;;;;;;27.85;21.80;;;;;;;;;;10289634;28;21387;-60
2023/12/17 10:19:44;;;;;;;25.55;21.35;;;;;;;;;;10280548;28;20462;-56
2023/12/17 10:24:42;;;;;;;23.83;20.42;;;;;;;;;;10308271;28;20127;-57
2023/12/17 10:29:44;;;;;;;26.65;21.55;;;;;;;;;;10300524;28;20548;-58
2023/12/17 10:34:42;;;;;;;34.85;25.38;;;;;;;;;;10296522;28;20080;-58
2023/12/17 10:39:41;;;;;;;31.83;23.48;;;;;;;;;;10285859;28;20047;-56
2023/12/17 10:44:40;;;;;;;29.85;24.70;;;;;;;;;;10311192;28;20134;-57
2023/12/17 10:49:40;;;;;;;39.75;28.42;;;;;;;;;;10285868;28;20154;-57
2023/12/17 10:54:38;;;;;;;30.00;24.35;;;;;;;;;;10274674;28;20682;-57
2023/12/17 10:59:38;;;;;;;32.75;27.25;;;;;;;;;;10261660;28;20056;-57
2023/12/17 11:04:45;;;;;;;24.90;21.02;;;;;;;;;;10281714;28;20511;-59
2023/12/17 11:09:44;;;;;;;26.10;20.98;;;;;;;;;;10275602;28;20131;-58
2023/12/17 11:14:44;;;;;;;34.33;28.58;;;;;;;;;;10283059;28;20072;-60
2023/12/17 11:20:00;;;;;;;41.95;31.23;;;;;;;;;;10284921;28;20084;-58
2023/12/17 11:24:59;;;;;;;45.30;40.55;;;;;;;;;;10286455;28;20075;-57
2023/12/17 11:29:57;;;;;;;75.85;48.78;;;;;;;;;;10288682;28;20064;-59
2023/12/17 11:34:56;;;;;;;34.00;25.77;;;;;;;;;;10285366;28;20080;-58
2023/12/17 11:39:56;;;;;;;60.70;42.60;;;;;;;;;;10284821;28;20086;-56
2023/12/17 11:44:54;;;;;;;36.20;27.90;;;;;;;;;;10289715;28;20099;-58
2023/12/17 11:49:57;;;;;;;27.60;22.80;;;;;;;;;;10287798;28;20076;-57
2023/12/17 11:55:01;;;;;;;28.77;23.15;;;;;;;;;;10286811;28;20529;-58
2023/12/17 12:00:00;;;;;;;24.83;20.80;;;;;;;;;;10288880;28;20092;-57
2023/12/17 12:04:58;;;;;;;37.08;25.83;;;;;;;;;;10289184;28;20095;-57
2023/12/17 12:10:07;;;;;;;22.67;17.00;;;;;;;;;;10288352;28;20079;-57
2023/12/17 12:15:06;;;;;;;20.40;17.58;;;;;;;;;;10283677;28;20493;-58
2023/12/17 12:20:05;;;;;;;19.17;17.02;;;;;;;;;;10288768;28;20085;-58
2023/12/17 12:25:06;;;;;;;19.70;15.85;;;;;;;;;;10287950;28;20075;-62
2023/12/17 12:30:05;;;;;;;16.42;13.32;;;;;;;;;;10285443;28;20493;-57
2023/12/17 12:35:04;;;;;;;16.38;14.43;;;;;;;;;;10284601;28;20473;-57
2023/12/17 12:40:03;;;;;;;16.77;13.68;;;;;;;;;;10286406;28;20083;-59
2023/12/17 12:45:05;;;;;;;20.35;18.13;;;;;;;;;;10284808;28;20075;-57
2023/12/17 12:50:04;;;;;;;16.48;14.30;;;;;;;;;;10286879;28;20087;-57
2023/12/17 12:55:03;;;;;;;42.42;26.73;;;;;;;;;;10286472;28;20573;-57
2023/12/17 13:00:02;;;;;;;37.15;30.52;;;;;;;;;;10285336;28;20080;-57
2023/12/17 13:05:02;;;;;;;18.20;16.08;;;;;;;;;;10282497;28;20071;-58
2023/12/17 13:10:00;;;;;;;31.00;24.25;;;;;;;;;;10287852;28;20451;-58
2023/12/17 13:15:08;;;;;;;65.10;45.97;;;;;;;;;;10281412;28;20064;-59
2023/12/17 13:20:09;;;;;;;26.65;23.25;;;;;;;;;;10285149;28;20076;-59
2023/12/17 13:25:09;;;;;;;28.90;22.05;;;;;;;;;;10286322;28;20525;-58
2023/12/17 13:30:07;;;;;;;20.85;18.63;;;;;;;;;;10285528;28;20060;-58
2023/12/17 13:35:09;;;;;;;21.70;18.65;;;;;;;;;;10286385;28;20084;-56
2023/12/17 13:40:08;;;;;;;73.75;42.78;;;;;;;;;;10284842;28;20080;-58
2023/12/17 13:45:07;;;;;;;39.70;26.38;;;;;;;;;;10285202;28;20489;-59
2023/12/17 13:50:07;;;;;;;46.08;32.47;;;;;;;;;;10285026;28;20088;-57
2023/12/17 13:55:09;;;;;;;38.63;27.33;;;;;;;;;;10289001;28;20040;-57
2023/12/17 14:00:08;;;;;;;39.45;28.48;;;;;;;;;;10292313;28;20084;-58
2023/12/17 14:05:06;;;;;;;53.47;38.33;;;;;;;;;;10292617;28;20497;-58
2023/12/17 14:10:12;;;;;;;40.53;33.25;;;;;;;;;;10291676;28;20041;-57
2023/12/17 14:15:10;;;;;;;29.35;25.58;;;;;;;;;;10292613;28;20080;-58
2023/12/17 14:20:09;;;;;;;33.65;23.63;;;;;;;;;;10293005;28;20072;-58
2023/12/17 14:25:18;;;;;;;18.42;15.73;;;;;;;;;;10291579;28;20048;-59
2023/12/17 14:30:17;;;;;;;27.52;22.13;;;;;;;;;;10292616;28;20076;-58
2023/12/17 14:35:15;;;;;;;30.98;23.40;;;;;;;;;;10291723;28;20083;-56
2023/12/17 14:40:14;;;;;;;45.80;31.40;;;;;;;;;;10291435;28;20069;-57
2023/12/17 14:45:15;;;;;;;32.95;22.30;;;;;;;;;;10291016;28;20072;-56
2023/12/17 14:50:13;;;;;;;33.47;25.77;;;;;;;;;;10291931;28;20079;-57
2023/12/17 14:55:12;;;;;;;36.72;28.67;;;;;;;;;;10285347;28;20079;-58
2023/12/17 15:00:11;;;;;;;38.42;29.35;;;;;;;;;;10290466;28;20084;-55
2023/12/17 15:05:11;;;;;;;27.10;22.48;;;;;;;;;;10288711;28;20084;-57
2023/12/17 15:10:10;;;;;;;35.65;29.15;;;;;;;;;;10293439;28;20474;-57
2023/12/17 15:15:08;;;;;;;32.55;27.38;;;;;;;;;;10289739;28;20068;-58
2023/12/17 15:20:07;;;;;;;41.50;34.70;;;;;;;;;;10285678;28;20080;-58
2023/12/17 15:25:07;;;;;;;31.05;26.33;;;;;;;;;;10292161;28;20084;-57
2023/12/17 15:30:06;;;;;;;28.70;23.55;;;;;;;;;;10289028;28;20079;-58
2023/12/17 15:35:05;;;;;;;39.85;35.58;;;;;;;;;;10289609;28;20722;-56
2023/12/17 15:40:05;;;;;;;27.70;24.77;;;;;;;;;;10287815;28;20075;-56
2023/12/17 15:45:05;;;;;;;29.88;25.30;;;;;;;;;;10289007;28;20068;-57
2023/12/17 15:50:05;;;;;;;32.05;24.38;;;;;;;;;;10286511;28;20071;-58
2023/12/17 15:55:04;;;;;;;24.60;21.58;;;;;;;;;;10286944;28;20068;-56
2023/12/17 16:00:08;;;;;;;42.38;32.28;;;;;;;;;;10288459;28;20072;-57
2023/12/17 16:05:08;;;;;;;41.27;28.53;;;;;;;;;;10288403;28;20070;-57
2023/12/17 16:10:07;;;;;;;36.42;30.08;;;;;;;;;;10287029;28;20064;-58
2023/12/17 16:15:05;;;;;;;38.97;28.58;;;;;;;;;;10286654;28;20083;-59
2023/12/17 16:20:04;;;;;;;31.08;23.17;;;;;;;;;;10285615;28;20071;-58
2023/12/17 16:25:05;;;;;;;25.60;22.23;;;;;;;;;;10283758;28;20079;-59
2023/12/17 16:30:03;;;;;;;30.38;23.35;;;;;;;;;;10285140;28;20072;-56
2023/12/17 16:35:03;;;;;;;34.63;30.30;;;;;;;;;;10286741;28;20514;-58
2023/12/17 16:40:03;;;;;;;20.70;17.48;;;;;;;;;;10287356;28;20079;-58
2023/12/17 16:45:03;;;;;;;19.83;17.73;;;;;;;;;;10286998;28;20080;-59
2023/12/17 16:50:02;;;;;;;21.75;18.13;;;;;;;;;;10287471;28;20068;-58
2023/12/17 16:55:01;;;;;;;16.95;15.10;;;;;;;;;;10285371;28;20068;-58
2023/12/17 17:00:00;;;;;;;16.42;14.70;;;;;;;;;;10285847;28;20068;-57
2023/12/17 17:05:00;;;;;;;18.52;14.48;;;;;;;;;;10286162;28;20068;-58
2023/12/17 17:09:59;;;;;;;24.25;21.65;;;;;;;;;;10286867;28;20068;-57
2023/12/17 17:14:57;;;;;;;21.67;18.27;;;;;;;;;;10286773;28;20067;-59
2023/12/17 17:19:55;;;;;;;20.65;17.73;;;;;;;;;;10288141;28;20073;-57
2023/12/17 17:24:55;;;;;;;18.02;16.00;;;;;;;;;;10283153;28;20494;-56
2023/12/17 17:29:53;;;;;;;19.42;16.00;;;;;;;;;;10287678;28;20068;-60
2023/12/17 17:34:53;;;;;;;20.48;16.00;;;;;;;;;;10295062;28;20080;-59
2023/12/17 17:39:51;;;;;;;23.35;17.92;;;;;;;;;;10294140;28;20065;-57
2023/12/17 17:44:53;;;;;;;18.55;16.20;;;;;;;;;;10292538;28;20079;-57
2023/12/17 17:49:51;;;;;;;16.38;13.15;;;;;;;;;;10289874;28;20087;-57
2023/12/17 17:54:50;;;;;;;19.52;16.00;;;;;;;;;;10293830;28;20068;-58
2023/12/17 17:59:49;;;;;;;20.58;17.35;;;;;;;;;;10293533;28;20061;-57
2023/12/17 18:04:48;;;;;;;22.40;16.88;;;;;;;;;;10295151;28;20471;-57
2023/12/17 18:09:47;;;;;;;17.98;14.85;;;;;;;;;;10294236;28;20076;-57
2023/12/17 18:14:45;;;;;;;20.25;16.20;;;;;;;;;;10290503;28;20091;-56
2023/12/17 18:19:44;;;;;;;17.17;13.70;;;;;;;;;;10287956;28;20469;-60
2023/12/17 18:24:43;;;;;;;22.17;16.92;;;;;;;;;;10292249;28;20072;-57
2023/12/17 18:29:42;;;;;;;22.70;17.80;;;;;;;;;;10292094;28;20081;-58
2023/12/17 18:34:41;;;;;;;13.88;12.45;;;;;;;;;;10291612;28;20076;-58
2023/12/17 18:39:39;;;;;;;12.40;10.95;;;;;;;;;;10292231;28;20075;-56
2023/12/17 18:44:39;;;;;;;13.63;10.40;;;;;;;;;;10288268;28;20076;-58
2023/12/17 18:49:37;;;;;;;16.60;13.18;;;;;;;;;;10290306;28;20068;-57
2023/12/17 18:54:37;;;;;;;18.73;13.77;;;;;;;;;;10290865;28;20060;-56
2023/12/17 18:59:36;;;;;;;19.73;15.52;;;;;;;;;;10291662;28;20064;-57
2023/12/17 19:04:35;;;;;;;14.68;11.65;;;;;;;;;;10290794;28;20084;-58
2023/12/17 19:09:34;;;;;;;27.08;18.83;;;;;;;;;;10289932;28;20505;-58
2023/12/17 19:14:32;;;;;;;30.08;21.27;;;;;;;;;;10281729;28;20126;-57
2023/12/17 19:19:30;;;;;;;23.10;16.52;;;;;;;;;;10292858;28;20903;-56
2023/12/17 19:24:30;;;;;;;21.20;13.93;;;;;;;;;;10285845;28;21768;-57
2023/12/17 19:29:28;;;;;;;37.03;22.23;;;;;;;;;;10277090;28;20429;-56
2023/12/17 19:34:26;;;;;;;33.35;21.65;;;;;;;;;;10309566;28;20073;-57
2023/12/17 19:39:25;;;;;;;115.20;54.20;;;;;;;;;;10298529;28;20111;-58
2023/12/17 19:44:24;;;;;;;47.75;27.48;;;;;;;;;;10269359;28;20062;-57
2023/12/17 19:49:23;;;;;;;42.92;24.00;;;;;;;;;;10266540;28;20036;-58
2023/12/17 19:54:22;;;;;;;46.70;23.75;;;;;;;;;;10276249;28;20046;-58
2023/12/17 19:59:20;;;;;;;77.05;38.17;;;;;;;;;;10276622;28;20357;-57
2023/12/17 20:04:19;;;;;;;61.95;29.33;;;;;;;;;;10276698;28;21486;-59
2023/12/17 20:09:18;;;;;;;27.10;19.20;;;;;;;;;;10266174;28;20048;-57
2023/12/17 20:14:16;;;;;;;22.50;14.32;;;;;;;;;;10310498;28;20087;-58
2023/12/17 20:19:15;;;;;;;35.22;21.50;;;;;;;;;;10267102;28;20044;-58
2023/12/17 20:24:14;;;;;;;14.15;10.73;;;;;;;;;;10264382;28;20048;-59
2023/12/17 20:29:13;;;;;;;12.73;10.20;;;;;;;;;;10264184;28;20044;-58
2023/12/17 20:34:11;;;;;;;13.50;11.20;;;;;;;;;;10264399;28;20060;-59
2023/12/17 20:39:09;;;;;;;10.60;9.60;;;;;;;;;;10265137;28;20712;-58
2023/12/17 20:44:09;;;;;;;13.73;11.40;;;;;;;;;;10267644;28;20048;-58
2023/12/17 20:49:07;;;;;;;15.30;12.60;;;;;;;;;;10262325;28;20036;-58
2023/12/17 20:54:06;;;;;;;19.70;15.65;;;;;;;;;;10264214;28;20970;-57
2023/12/17 20:59:04;;;;;;;13.10;11.55;;;;;;;;;;10261363;28;20036;-58
2023/12/17 21:04:04;;;;;;;16.05;12.73;;;;;;;;;;10265559;28;20048;-58
2023/12/17 21:09:03;;;;;;;14.15;12.20;;;;;;;;;;10285870;28;20132;-57
2023/12/17 21:14:02;;;;;;;11.98;10.65;;;;;;;;;;10268029;28;20043;-55
2023/12/17 21:19:00;;;;;;;14.98;12.38;;;;;;;;;;10265839;28;20051;-56
2023/12/17 21:24:00;;;;;;;18.65;14.48;;;;;;;;;;10266785;28;20071;-58
2023/12/17 21:28:58;;;;;;;16.08;13.07;;;;;;;;;;10267252;28;20296;-56
2023/12/17 21:33:56;;;;;;;14.85;13.30;;;;;;;;;;10264355;28;20970;-57
2023/12/17 21:38:56;;;;;;;14.85;12.27;;;;;;;;;;10261923;28;20044;-57
2023/12/17 21:43:56;;;;;;;17.08;13.77;;;;;;;;;;10280373;28;21537;-58
2023/12/17 21:48:54;;;;;;;15.35;12.82;;;;;;;;;;10274625;28;20052;-58
2023/12/17 21:53:52;;;;;;;15.32;12.90;;;;;;;;;;10268259;28;20043;-58
2023/12/17 21:58:51;;;;;;;15.45;12.70;;;;;;;;;;10284405;28;20066;-58
2023/12/17 22:03:50;;;;;;;14.32;11.45;;;;;;;;;;10300481;28;20148;-56
2023/12/17 22:08:48;;;;;;;13.35;11.52;;;;;;;;;;10289666;28;20091;-57
2023/12/17 22:13:57;;;;;;;14.02;12.23;;;;;;;;;;10288511;28;20072;-58
2023/12/17 22:18:57;;;;;;;13.98;12.00;;;;;;;;;;10283896;28;20352;-57
2023/12/17 22:23:55;;;;;;;16.42;13.30;;;;;;;;;;10288868;28;20085;-58
2023/12/17 22:28:54;;;;;;;14.88;12.55;;;;;;;;;;10286514;28;20470;-58
2023/12/17 22:33:52;;;;;;;13.55;10.52;;;;;;;;;;10289051;28;20083;-58
2023/12/17 22:38:52;;;;;;;14.40;11.70;;;;;;;;;;10290307;28;20544;-58
2023/12/17 22:43:50;;;;;;;18.88;12.95;;;;;;;;;;10292210;28;20564;-58
2023/12/17 22:48:48;;;;;;;15.98;12.43;;;;;;;;;;10291014;28;20087;-58
2023/12/17 22:53:47;;;;;;;12.90;10.88;;;;;;;;;;10290830;28;20829;-57
2023/12/17 22:58:50;;;;;;;12.98;11.25;;;;;;;;;;10290362;28;20065;-57
2023/12/17 23:03:48;;;;;;;12.52;10.63;;;;;;;;;;10292002;28;20069;-57
2023/12/17 23:08:47;;;;;;;12.40;11.02;;;;;;;;;;10290364;28;20517;-58
2023/12/17 23:13:46;;;;;;;12.63;10.75;;;;;;;;;;10291011;28;20080;-57
2023/12/17 23:18:45;;;;;;;15.77;12.25;;;;;;;;;;10290030;28;20065;-58
2023/12/17 23:23:43;;;;;;;13.50;11.23;;;;;;;;;;10284888;28;20072;-58
2023/12/17 23:28:41;;;;;;;13.40;10.25;;;;;;;;;;10289934;28;20072;-57
2023/12/17 23:33:41;;;;;;;12.68;10.55;;;;;;;;;;10287231;28;20076;-58
2023/12/17 23:38:39;;;;;;;14.77;10.45;;;;;;;;;;10287954;28;20072;-58
2023/12/17 23:43:37;;;;;;;12.98;9.63;;;;;;;;;;10287271;28;20514;-57
2023/12/17 23:48:36;;;;;;;14.48;11.63;;;;;;;;;;10285207;28;20079;-58
2023/12/17 23:53:36;;;;;;;12.15;10.85;;;;;;;;;;10287656;28;20083;-54
2023/12/17 23:58:34;;;;;;;11.50;9.55;;;;;;;;;;10288226;28;20084;-57
